createdAt,value
2023-01-30T00:01:12.263Z,98871.34
2023-01-30T00:03:38.670Z,98887.34
2023-01-30T00:06:05.242Z,98885.13
2023-01-30T00:08:31.688Z,98875.06
2023-01-30T00:11:04.303Z,98864.84
2023-01-30T00:13:30.817Z,98827.53
2023-01-30T00:15:57.395Z,98850.00
2023-01-30T00:18:24.211Z,98856.47
2023-01-30T00:21:02.594Z,98851.66
2023-01-30T00:23:30.362Z,98847.94
2023-01-30T00:25:56.837Z,98833.72
2023-01-30T00:28:24.040Z,98848.19
2023-01-30T00:30:51.689Z,98770.19
2023-01-30T00:33:19.620Z,98848.19
2023-01-30T00:35:48.124Z,98870.53
2023-01-30T00:38:15.166Z,98869.16
2023-01-30T00:40:42.075Z,98860.22
2023-01-30T00:43:31.130Z,98857.59
2023-01-30T00:46:17.089Z,98841.19
2023-01-30T00:48:43.553Z,98838.69
2023-01-30T00:51:10.368Z,98839.94
2023-01-30T00:53:36.961Z,98815.69
2023-01-30T00:56:03.887Z,98810.53
2023-01-30T00:58:30.353Z,98795.81
2023-01-30T01:00:56.876Z,98765.63
2023-01-30T01:03:23.591Z,98794.72
2023-01-30T01:05:50.124Z,98796.09
2023-01-30T01:08:16.751Z,98792.66
2023-01-30T01:10:43.231Z,98793.06
2023-01-30T01:13:10.548Z,98791.97
2023-01-30T01:15:37.197Z,98775.16
2023-01-30T01:18:05.472Z,98790.56
2023-01-30T01:20:32.011Z,98774.84
2023-01-30T01:22:58.479Z,98737.53
2023-01-30T01:25:26.103Z,98769.06
2023-01-30T01:27:54.239Z,98767.03
2023-01-30T01:30:20.877Z,98778.59
2023-01-30T01:32:47.341Z,98771.28
2023-01-30T01:35:13.814Z,98778.19
2023-01-30T01:37:40.291Z,98773.78
2023-01-30T01:40:26.186Z,98786.16
2023-01-30T01:42:52.749Z,98777.63
2023-01-30T01:45:22.057Z,98768.53
2023-01-30T01:48:06.021Z,98757.25
2023-01-30T01:50:58.322Z,98768.41
2023-01-30T01:53:30.050Z,98744.00
2023-01-30T01:55:59.473Z,98748.28
2023-01-30T01:58:40.248Z,98720.03
2023-01-30T02:01:07.260Z,98688.91
2023-01-30T02:03:40.131Z,98694.59
2023-01-30T02:06:08.407Z,98690.56
2023-01-30T02:08:43.795Z,98698.00
2023-01-30T02:11:38.840Z,98701.84
2023-01-30T02:14:06.402Z,98694.44
2023-01-30T02:16:32.887Z,98700.06
2023-01-30T02:18:59.367Z,98671.56
2023-01-30T02:21:56.591Z,98695.81
2023-01-30T02:24:40.677Z,98694.41
2023-01-30T02:27:32.184Z,98700.22
2023-01-30T02:30:42.724Z,98701.84
2023-01-30T02:33:57.385Z,98679.56
2023-01-30T02:36:36.553Z,98663.59
2023-01-30T02:39:17.242Z,98653.13
2023-01-30T02:41:50.373Z,98660.81
2023-01-30T02:44:23.695Z,98661.66
2023-01-30T02:46:58.932Z,98669.91
2023-01-30T02:49:32.183Z,98660.28
2023-01-30T02:52:01.360Z,98690.44
2023-01-30T02:54:27.951Z,98677.75
2023-01-30T02:56:58.148Z,98692.22
2023-01-30T02:59:39.220Z,98671.81
2023-01-30T03:02:51.975Z,98677.34
2023-01-30T03:05:30.791Z,98697.31
2023-01-30T03:08:14.699Z,98691.69
2023-01-30T03:10:52.001Z,98695.25
2023-01-30T03:13:45.979Z,98687.41
2023-01-30T03:16:22.734Z,98691.41
2023-01-30T03:18:49.528Z,98686.72
2023-01-30T03:21:17.532Z,98687.00
2023-01-30T03:23:47.452Z,98691.53
2023-01-30T03:26:24.676Z,98691.13
2023-01-30T03:28:53.041Z,98683.41
2023-01-30T03:31:20.001Z,98684.94
2023-01-30T03:33:46.535Z,98683.84
2023-01-30T03:36:13.870Z,98691.69
2023-01-30T03:38:40.531Z,98682.59
2023-01-30T03:41:07.027Z,98690.31
2023-01-30T03:43:34.318Z,98691.81
2023-01-30T03:46:03.104Z,98704.22
2023-01-30T03:48:29.927Z,98695.56
2023-01-30T03:50:56.431Z,98686.19
2023-01-30T03:53:23.115Z,98663.75
2023-01-30T03:55:49.800Z,98680.94
2023-01-30T03:58:21.488Z,98665.53
2023-01-30T04:00:48.369Z,98651.75
2023-01-30T04:03:15.753Z,98667.72
2023-01-30T04:05:43.753Z,98636.66
2023-01-30T04:08:10.602Z,98669.09
2023-01-30T04:10:37.166Z,98634.44
2023-01-30T04:13:03.713Z,98670.75
2023-01-30T04:15:31.933Z,98646.13
2023-01-30T04:18:16.821Z,98659.59
2023-01-30T04:21:04.241Z,98637.59
2023-01-30T04:23:35.953Z,98670.19
2023-01-30T04:26:03.696Z,98669.22
2023-01-30T04:28:31.620Z,98675.13
2023-01-30T04:30:58.221Z,98667.94
2023-01-30T04:33:43.173Z,98666.28
2023-01-30T04:36:11.433Z,98652.31
2023-01-30T04:38:39.055Z,98641.78
2023-01-30T04:41:07.010Z,98660.22
2023-01-30T04:43:36.093Z,98649.06
2023-01-30T04:46:28.618Z,98625.78
2023-01-30T04:48:56.026Z,98628.81
2023-01-30T04:51:22.461Z,98543.28
2023-01-30T04:53:48.915Z,98634.31
2023-01-30T04:56:15.398Z,98627.94
2023-01-30T04:58:42.439Z,98618.84
2023-01-30T05:01:14.122Z,98600.16
2023-01-30T05:03:40.603Z,98628.22
2023-01-30T05:06:07.372Z,98625.72
2023-01-30T05:08:33.809Z,98604.25
2023-01-30T05:11:00.232Z,98603.41
2023-01-30T05:13:26.695Z,98604.38
2023-01-30T05:15:53.169Z,98609.31
2023-01-30T05:18:19.647Z,98578.91
2023-01-30T05:20:46.038Z,98585.13
2023-01-30T05:23:12.450Z,98595.56
2023-01-30T05:25:38.842Z,98572.31
2023-01-30T05:28:05.260Z,98599.56
2023-01-30T05:30:31.705Z,98590.31
2023-01-30T05:32:58.831Z,98572.81
2023-01-30T05:35:25.247Z,98565.38
2023-01-30T05:37:52.477Z,98526.03
2023-01-30T05:40:19.023Z,98564.97
2023-01-30T05:42:45.443Z,98564.41
2023-01-30T05:45:11.877Z,98558.28
2023-01-30T05:47:38.346Z,98592.94
2023-01-30T05:50:05.177Z,98588.53
2023-01-30T05:52:31.618Z,98602.72
2023-01-30T05:54:58.029Z,98588.06
2023-01-30T05:57:24.517Z,98591.06
2023-01-30T05:59:50.917Z,98591.44
2023-01-30T06:02:17.363Z,98587.59
2023-01-30T06:04:43.836Z,98587.66
2023-01-30T06:07:10.277Z,98576.63
2023-01-30T06:09:36.688Z,98559.63
2023-01-30T06:12:03.213Z,98554.50
2023-01-30T06:14:29.652Z,98557.56
2023-01-30T06:16:56.219Z,98558.66
2023-01-30T06:19:23.777Z,98567.53
2023-01-30T06:21:50.213Z,98573.50
2023-01-30T06:24:16.627Z,98525.47
2023-01-30T06:26:43.115Z,98571.00
2023-01-30T06:29:09.594Z,98573.84
2023-01-30T06:31:36.118Z,98577.97
2023-01-30T06:34:02.622Z,98577.81
2023-01-30T06:36:29.145Z,98597.50
2023-01-30T06:38:55.603Z,98596.78
2023-01-30T06:41:22.019Z,98584.59
2023-01-30T06:43:48.497Z,98568.38
2023-01-30T06:46:14.971Z,98548.88
2023-01-30T06:48:41.451Z,98557.16
2023-01-30T06:51:07.896Z,98559.06
2023-01-30T06:53:34.314Z,98568.75
2023-01-30T06:56:01.594Z,98561.13
2023-01-30T06:58:28.121Z,98566.81
2023-01-30T07:00:54.601Z,98565.69
2023-01-30T07:03:21.043Z,98569.16
2023-01-30T07:05:48.279Z,98580.13
2023-01-30T07:08:16.222Z,98518.84
2023-01-30T07:10:43.580Z,98584.78
2023-01-30T07:13:10.238Z,98559.38
2023-01-30T07:15:37.084Z,98573.53
2023-01-30T07:18:03.680Z,98576.22
2023-01-30T07:20:31.207Z,98581.19
2023-01-30T07:22:58.025Z,98570.19
2023-01-30T07:25:26.233Z,98566.34
2023-01-30T07:27:58.358Z,98541.28
2023-01-30T07:30:26.050Z,98565.63
2023-01-30T07:32:54.769Z,98530.59
2023-01-30T07:35:23.112Z,98525.63
2023-01-30T07:37:50.856Z,98563.84
2023-01-30T07:40:18.905Z,98601.63
2023-01-30T07:42:56.201Z,98608.13
2023-01-30T07:45:22.660Z,98603.81
2023-01-30T07:47:49.054Z,98583.41
2023-01-30T07:50:16.343Z,98572.28
2023-01-30T07:52:42.923Z,98574.00
2023-01-30T07:55:09.567Z,98549.81
2023-01-30T07:57:36.056Z,98562.66
2023-01-30T08:00:04.741Z,98586.59
2023-01-30T08:02:35.222Z,98566.34
2023-01-30T08:05:02.771Z,98588.44
2023-01-30T08:07:30.306Z,98588.97
2023-01-30T08:09:56.728Z,98587.03
2023-01-30T08:12:23.232Z,98602.75
2023-01-30T08:14:49.630Z,98596.00
2023-01-30T08:17:16.159Z,98579.34
2023-01-30T08:19:42.613Z,98601.09
2023-01-30T08:22:09.122Z,98582.19
2023-01-30T08:24:35.876Z,98589.72
2023-01-30T08:27:03.173Z,98584.78
2023-01-30T08:29:29.631Z,98582.56
2023-01-30T08:31:59.951Z,98575.03
2023-01-30T08:34:26.891Z,98563.88
2023-01-30T08:36:53.401Z,98551.13
2023-01-30T08:39:19.870Z,98577.53
2023-01-30T08:41:46.336Z,98582.34
2023-01-30T08:44:12.794Z,98576.53
2023-01-30T08:46:39.543Z,98582.44
2023-01-30T08:49:06.507Z,98577.50
2023-01-30T08:51:33.189Z,98579.84
2023-01-30T08:53:59.624Z,98566.19
2023-01-30T08:56:26.167Z,98573.91
2023-01-30T08:58:52.640Z,98578.72
2023-01-30T09:01:19.948Z,98555.94
2023-01-30T09:03:46.834Z,98573.38
2023-01-30T09:06:13.366Z,98576.44
2023-01-30T09:08:39.755Z,98569.03
2023-01-30T09:11:06.664Z,98569.41
2023-01-30T09:13:34.740Z,98548.53
2023-01-30T09:16:01.199Z,98581.63
2023-01-30T09:18:27.699Z,98552.03
2023-01-30T09:21:03.057Z,98545.00
2023-01-30T09:23:29.969Z,98546.94
2023-01-30T09:25:56.385Z,98546.94
2023-01-30T09:28:22.967Z,98552.94
2023-01-30T09:30:49.497Z,98548.53
2023-01-30T09:33:20.145Z,98546.56
2023-01-30T09:35:49.989Z,98514.75
2023-01-30T09:38:17.189Z,98527.53
2023-01-30T09:41:06.742Z,98526.63
2023-01-30T09:44:02.715Z,98547.16
2023-01-30T09:46:48.293Z,98527.59
2023-01-30T09:49:39.784Z,98548.50
2023-01-30T09:52:33.634Z,98558.09
2023-01-30T09:55:18.568Z,98549.00
2023-01-30T09:57:50.817Z,98552.06
2023-01-30T10:00:35.825Z,98542.13
2023-01-30T10:03:10.579Z,98546.00
2023-01-30T10:05:56.879Z,98545.34
2023-01-30T10:08:56.283Z,98551.84
2023-01-30T10:11:29.146Z,98559.78
2023-01-30T10:14:13.357Z,98554.03
2023-01-30T10:17:04.076Z,98544.56
2023-01-30T10:19:49.274Z,98556.41
2023-01-30T10:22:22.931Z,98553.31
2023-01-30T10:25:03.029Z,98546.16
2023-01-30T10:27:32.349Z,98545.28
2023-01-30T10:30:03.239Z,98544.47
2023-01-30T10:32:44.104Z,98537.91
2023-01-30T10:35:18.272Z,98524.19
2023-01-30T10:38:00.916Z,98531.28
2023-01-30T10:40:42.839Z,98533.09
2023-01-30T10:43:30.773Z,98521.31
2023-01-30T10:46:04.399Z,98532.66
2023-01-30T10:48:53.200Z,98532.97
2023-01-30T10:51:19.742Z,98534.28
2023-01-30T10:53:53.383Z,98541.06
2023-01-30T10:56:40.063Z,98545.38
2023-01-30T10:59:20.858Z,98544.09
2023-01-30T11:02:02.636Z,98502.59
2023-01-30T11:04:59.477Z,98528.78
2023-01-30T11:07:30.531Z,98524.84
2023-01-30T11:09:58.364Z,98532.91
2023-01-30T11:12:24.936Z,98538.16
2023-01-30T11:14:58.720Z,98538.84
2023-01-30T11:17:32.142Z,98514.88
2023-01-30T11:20:04.965Z,98524.22
2023-01-30T11:22:34.286Z,98521.78
2023-01-30T11:25:03.795Z,98470.38
2023-01-30T11:27:35.116Z,98520.75
2023-01-30T11:30:16.964Z,98532.25
2023-01-30T11:32:45.192Z,98521.06
2023-01-30T11:35:14.616Z,98519.75
2023-01-30T11:37:43.547Z,98504.00
2023-01-30T11:40:23.756Z,98513.84
2023-01-30T11:43:12.178Z,98509.25
2023-01-30T11:45:43.933Z,98533.53
2023-01-30T11:48:33.026Z,98523.88
2023-01-30T11:51:04.559Z,98511.88
2023-01-30T11:53:56.729Z,98491.13
2023-01-30T11:56:44.500Z,98524.53
2023-01-30T11:59:32.164Z,98515.22
2023-01-30T12:02:24.891Z,98518.00
2023-01-30T12:04:54.692Z,98499.09
2023-01-30T12:07:25.374Z,98505.78
2023-01-30T12:09:54.090Z,98491.72
2023-01-30T12:12:29.703Z,98508.69
2023-01-30T12:15:21.434Z,98509.38
2023-01-30T12:18:15.637Z,98504.63
2023-01-30T12:20:52.559Z,98502.47
2023-01-30T12:23:31.101Z,98470.22
2023-01-30T12:26:15.618Z,98514.91
2023-01-30T12:28:52.146Z,98521.69
2023-01-30T12:31:24.797Z,98515.25
2023-01-30T12:33:54.504Z,98505.53
2023-01-30T12:36:50.596Z,98510.97
2023-01-30T12:39:44.916Z,98488.28
2023-01-30T12:42:47.847Z,98519.53
2023-01-30T12:45:24.244Z,98518.41
2023-01-30T12:48:44.145Z,98496.22
2023-01-30T12:51:32.408Z,98520.25
2023-01-30T12:54:34.063Z,98523.19
2023-01-30T12:57:05.279Z,98532.03
2023-01-30T12:59:31.680Z,98529.09
2023-01-30T13:02:17.309Z,98503.75
2023-01-30T13:05:23.701Z,98531.06
2023-01-30T13:08:04.852Z,98532.69
2023-01-30T13:10:43.048Z,98537.28
2023-01-30T13:13:18.069Z,98545.94
2023-01-30T13:15:59.226Z,98535.44
2023-01-30T13:18:44.046Z,98519.34
2023-01-30T13:21:18.599Z,98502.34
2023-01-30T13:24:22.974Z,98525.59
2023-01-30T13:26:50.865Z,98534.78
2023-01-30T13:29:37.960Z,98529.72
2023-01-30T13:33:00.111Z,98532.06
2023-01-30T13:35:34.322Z,98519.09
2023-01-30T13:38:04.399Z,98511.22
2023-01-30T13:40:38.626Z,98527.50
2023-01-30T13:43:29.242Z,98536.38
2023-01-30T13:46:01.579Z,98533.28
2023-01-30T13:48:57.015Z,98528.22
2023-01-30T13:51:43.139Z,98530.88
2023-01-30T13:54:31.227Z,98502.75
2023-01-30T13:57:28.230Z,98526.59
2023-01-30T14:00:15.268Z,98529.88
2023-01-30T14:03:03.846Z,98546.66
2023-01-30T14:05:52.613Z,98544.69
2023-01-30T14:08:22.040Z,98491.41
2023-01-30T14:10:49.782Z,98537.97
2023-01-30T14:13:19.809Z,98546.34
2023-01-30T14:15:58.075Z,98553.78
2023-01-30T14:18:31.072Z,98556.22
2023-01-30T14:21:14.388Z,98560.16
2023-01-30T14:23:53.408Z,98556.22
2023-01-30T14:27:00.071Z,98566.44
2023-01-30T14:29:38.955Z,98561.50
2023-01-30T14:32:14.610Z,98568.72
2023-01-30T14:34:44.884Z,98569.88
2023-01-30T14:37:39.188Z,98581.72
2023-01-30T14:40:20.854Z,98566.25
2023-01-30T14:43:12.247Z,98572.66
2023-01-30T14:46:00.755Z,98570.50
2023-01-30T14:48:33.316Z,98573.81
2023-01-30T14:51:21.269Z,98574.81
2023-01-30T14:54:10.116Z,98583.19
2023-01-30T14:56:51.622Z,98587.81
2023-01-30T14:59:20.955Z,98588.78
2023-01-30T15:02:03.622Z,98494.16
2023-01-30T15:04:33.692Z,98596.66
2023-01-30T15:07:05.413Z,98603.06
2023-01-30T15:09:32.516Z,98601.44
2023-01-30T15:12:24.677Z,98608.69
2023-01-30T15:15:16.887Z,98610.31
2023-01-30T15:18:28.670Z,98620.00
2023-01-30T15:21:04.117Z,98614.13
2023-01-30T15:23:36.509Z,98620.19
2023-01-30T15:26:09.686Z,98600.59
2023-01-30T15:28:53.275Z,98609.63
2023-01-30T15:31:22.437Z,98628.59
2023-01-30T15:33:51.730Z,98643.41
2023-01-30T15:36:31.572Z,98649.00
2023-01-30T15:38:59.030Z,98648.03
2023-01-30T15:41:26.616Z,98650.50
2023-01-30T15:44:29.763Z,98659.88
2023-01-30T15:47:24.256Z,98657.25
2023-01-30T15:49:54.351Z,98666.78
2023-01-30T15:52:22.880Z,98685.22
2023-01-30T15:54:54.742Z,98685.53
2023-01-30T15:57:31.359Z,98684.22
2023-01-30T15:59:58.184Z,98693.75
2023-01-30T16:02:33.761Z,98700.31
2023-01-30T16:05:25.322Z,98692.75
2023-01-30T16:07:54.594Z,98688.97
2023-01-30T16:10:23.695Z,98696.03
2023-01-30T16:12:54.548Z,98707.38
2023-01-30T16:15:34.878Z,98716.91
2023-01-30T16:18:09.578Z,98712.81
2023-01-30T16:21:00.821Z,98728.13
2023-01-30T16:23:29.531Z,98724.97
2023-01-30T16:25:57.103Z,98733.53
2023-01-30T16:28:26.328Z,98734.50
2023-01-30T16:31:07.758Z,98724.94
2023-01-30T16:33:36.485Z,98755.56
2023-01-30T16:36:21.476Z,98761.28
2023-01-30T16:38:49.873Z,98759.28
2023-01-30T16:41:31.835Z,98764.53
2023-01-30T16:44:21.661Z,98760.78
2023-01-30T16:46:52.376Z,98757.31
2023-01-30T16:49:37.402Z,98757.47
2023-01-30T16:52:36.962Z,98769.09
2023-01-30T16:55:07.809Z,98763.69
2023-01-30T16:57:40.272Z,98761.00
2023-01-30T17:00:13.172Z,98771.84
2023-01-30T17:02:50.816Z,98754.81
2023-01-30T17:05:19.224Z,98788.94
2023-01-30T17:07:46.605Z,98788.28
2023-01-30T17:10:28.510Z,98794.31
2023-01-30T17:12:55.806Z,98805.38
2023-01-30T17:15:22.312Z,98805.50
2023-01-30T17:17:49.978Z,98807.53
2023-01-30T17:20:16.775Z,98798.97
2023-01-30T17:22:46.790Z,98816.25
2023-01-30T17:25:35.760Z,98805.66
2023-01-30T17:28:02.464Z,98812.13
2023-01-30T17:30:28.930Z,98826.09
2023-01-30T17:32:55.375Z,98820.84
2023-01-30T17:35:22.023Z,98826.47
2023-01-30T17:37:59.618Z,98834.19
2023-01-30T17:40:36.834Z,98840.13
2023-01-30T17:43:03.945Z,98839.16
2023-01-30T17:45:30.610Z,98842.03
2023-01-30T17:47:57.036Z,98852.91
2023-01-30T17:50:23.600Z,98852.41
2023-01-30T17:52:50.038Z,98852.41
2023-01-30T17:55:16.585Z,98832.56
2023-01-30T17:57:46.333Z,98850.44
2023-01-30T18:00:19.089Z,98839.19
2023-01-30T18:02:46.327Z,98851.88
2023-01-30T18:05:13.075Z,98855.63
2023-01-30T18:07:40.253Z,98858.88
2023-01-30T18:10:07.645Z,98854.44
2023-01-30T18:12:34.068Z,98861.50
2023-01-30T18:15:00.543Z,98851.97
2023-01-30T18:17:30.240Z,98858.56
2023-01-30T18:19:56.663Z,98868.06
2023-01-30T18:22:23.177Z,98876.97
2023-01-30T18:24:49.605Z,98874.66
2023-01-30T18:27:16.020Z,98880.91
2023-01-30T18:29:42.487Z,98887.28
2023-01-30T18:32:08.962Z,98875.28
2023-01-30T18:34:35.944Z,98896.22
2023-01-30T18:37:02.482Z,98883.53
2023-01-30T18:39:29.243Z,98887.97
2023-01-30T18:41:55.672Z,98899.00
2023-01-30T18:44:22.103Z,98903.94
2023-01-30T18:46:50.240Z,98912.28
2023-01-30T18:49:16.661Z,98911.47
2023-01-30T18:51:43.062Z,98916.41
2023-01-30T18:54:09.517Z,98912.00
2023-01-30T18:56:36.514Z,98909.91
2023-01-30T18:59:05.125Z,98893.97
2023-01-30T19:01:35.461Z,98915.97
2023-01-30T19:04:02.975Z,98921.38
2023-01-30T19:06:30.172Z,98913.03
2023-01-30T19:08:57.557Z,98898.94
2023-01-30T19:11:43.055Z,98933.09
2023-01-30T19:14:10.513Z,98910.50
2023-01-30T19:16:38.762Z,98926.56
2023-01-30T19:19:05.528Z,98905.16
2023-01-30T19:21:32.292Z,98933.94
2023-01-30T19:24:01.710Z,98953.16
2023-01-30T19:26:28.793Z,98960.25
2023-01-30T19:28:55.281Z,98943.47
2023-01-30T19:31:22.486Z,98957.28
2023-01-30T19:33:55.834Z,98960.63
2023-01-30T19:36:24.273Z,98965.72
2023-01-30T19:38:51.249Z,98960.81
2023-01-30T19:41:27.021Z,98964.13
2023-01-30T19:43:54.909Z,98963.81
2023-01-30T19:46:21.525Z,98969.91
2023-01-30T19:48:48.967Z,98974.19
2023-01-30T19:51:27.050Z,98963.00
2023-01-30T19:53:59.197Z,98971.25
2023-01-30T19:56:27.137Z,98975.19
2023-01-30T19:58:55.098Z,98967.22
2023-01-30T20:01:23.695Z,98976.00
2023-01-30T20:03:50.494Z,98984.72
2023-01-30T20:06:19.608Z,98992.47
2023-01-30T20:08:49.474Z,98994.25
2023-01-30T20:11:18.794Z,98989.97
2023-01-30T20:13:46.826Z,98966.16
2023-01-30T20:16:18.456Z,98998.03
2023-01-30T20:18:47.109Z,98986.84
2023-01-30T20:21:19.704Z,98986.97
2023-01-30T20:23:47.123Z,98991.94
2023-01-30T20:26:16.361Z,98993.44
2023-01-30T20:28:43.025Z,98988.16
2023-01-30T20:31:12.739Z,98982.53
2023-01-30T20:33:39.939Z,98993.97
2023-01-30T20:36:08.943Z,98984.03
2023-01-30T20:38:37.441Z,98985.25
2023-01-30T20:41:17.671Z,99003.44
2023-01-30T20:43:46.608Z,99008.72
2023-01-30T20:46:19.131Z,99014.94
2023-01-30T20:48:46.857Z,99019.16
2023-01-30T20:51:18.297Z,99026.06
2023-01-30T20:53:53.507Z,99013.97
2023-01-30T20:56:21.386Z,99026.88
2023-01-30T20:58:48.251Z,99025.69
2023-01-30T21:01:18.443Z,99034.25
2023-01-30T21:03:48.749Z,99005.91
2023-01-30T21:06:37.304Z,99032.91
2023-01-30T21:09:03.176Z,99030.88
2023-01-30T21:11:29.728Z,99032.97
2023-01-30T21:13:56.468Z,99032.13
2023-01-30T21:16:25.580Z,99043.50
2023-01-30T21:18:55.042Z,99039.34
2023-01-30T21:21:39.461Z,99055.97
2023-01-30T21:24:13.940Z,99056.72
2023-01-30T21:26:45.812Z,99039.84
2023-01-30T21:29:14.360Z,99033.19
2023-01-30T21:31:41.484Z,99075.94
2023-01-30T21:34:09.745Z,99063.53
2023-01-30T21:36:36.799Z,99078.31
2023-01-30T21:39:21.829Z,99089.81
2023-01-30T21:42:07.108Z,99084.56
2023-01-30T21:44:39.258Z,99093.41
2023-01-30T21:47:07.059Z,99092.59
2023-01-30T21:49:34.365Z,99096.72
2023-01-30T21:52:00.891Z,99097.00
2023-01-30T21:54:27.755Z,99103.03
2023-01-30T21:56:54.259Z,99108.63
2023-01-30T21:59:20.782Z,99109.19
2023-01-30T22:01:47.278Z,99118.34
2023-01-30T22:04:14.929Z,99121.94
2023-01-30T22:06:42.526Z,99123.28
2023-01-30T22:09:11.538Z,99092.72
2023-01-30T22:11:38.691Z,99114.63
2023-01-30T22:14:05.496Z,99071.72
2023-01-30T22:16:33.541Z,99105.78
2023-01-30T22:19:03.489Z,99110.03
2023-01-30T22:21:33.501Z,99101.84
2023-01-30T22:24:02.262Z,98997.47
2023-01-30T22:26:29.349Z,99105.50
2023-01-30T22:28:57.392Z,99120.59
2023-01-30T22:31:25.190Z,99108.41
2023-01-30T22:33:54.992Z,99098.44
2023-01-30T22:36:29.262Z,99042.31
2023-01-30T22:38:56.067Z,99093.03
2023-01-30T22:41:24.787Z,99097.31
2023-01-30T22:43:56.164Z,99106.72
2023-01-30T22:46:25.105Z,99111.16
2023-01-30T22:48:51.758Z,99115.00
2023-01-30T22:51:20.912Z,99112.50
2023-01-30T22:53:50.556Z,99114.16
2023-01-30T22:56:23.009Z,99117.19
2023-01-30T22:58:50.041Z,99084.06
2023-01-30T23:01:19.653Z,99102.25
2023-01-30T23:03:47.656Z,99099.75
2023-01-30T23:06:16.648Z,99092.84
2023-01-30T23:08:45.686Z,99099.44
2023-01-30T23:11:18.316Z,99108.63
2023-01-30T23:13:47.583Z,99112.06
2023-01-30T23:16:15.861Z,99103.19
2023-01-30T23:19:00.665Z,99095.31
2023-01-30T23:21:37.841Z,99105.81
2023-01-30T23:24:16.676Z,99110.81
2023-01-30T23:26:45.967Z,99118.16
2023-01-30T23:29:15.135Z,99112.22
2023-01-30T23:31:43.386Z,99117.31
2023-01-30T23:34:15.526Z,99103.66
2023-01-30T23:36:42.293Z,99116.91
2023-01-30T23:39:08.943Z,99112.78
2023-01-30T23:41:36.605Z,99081.88
2023-01-30T23:44:04.115Z,99118.97
2023-01-30T23:46:36.669Z,99116.69
2023-01-30T23:49:10.443Z,99100.97
2023-01-30T23:51:39.908Z,99121.13
2023-01-30T23:54:07.122Z,99116.53
2023-01-30T23:56:37.566Z,99122.22
2023-01-30T23:59:05.013Z,99123.91
